sensor_id;sensor_type;location;lat;lon;timestamp;temperature;humidity
26757;DHT22;23848;49.798;10.228;2024-03-06T02:59:02;7.00;99.90
26757;DHT22;23848;49.798;10.228;2024-03-06T03:01:59;7.00;99.90
26757;DHT22;23848;49.798;10.228;2024-03-06T03:05:13;7.00;99.90
26757;DHT22;23848;49.798;10.228;2024-03-06T03:08:19;7.00;99.90
26757;DHT22;23848;49.798;10.228;2024-03-06T03:11:31;6.90;99.90
26757;DHT22;23848;49.798;10.228;2024-03-06T03:14:27;6.90;99.90
26757;DHT22;23848;49.798;10.228;2024-03-06T03:17:15;6.90;99.90
26757;DHT22;23848;49.798;10.228;2024-03-06T03:20:13;6.90;99.90
26757;DHT22;23848;49.798;10.228;2024-03-06T03:22:55;6.80;99.90
26757;DHT22;23848;49.798;10.228;2024-03-06T03:25:52;6.80;99.90
26757;DHT22;23848;49.798;10.228;2024-03-06T03:29:09;6.70;99.90
26757;DHT22;23848;49.798;10.228;2024-03-06T03:32:44;6.70;99.90
26757;DHT22;23848;49.798;10.228;2024-03-06T03:35:24;6.60;99.90
26757;DHT22;23848;49.798;10.228;2024-03-06T03:38:20;6.50;99.90
26757;DHT22;23848;49.798;10.228;2024-03-06T03:49:45;6.50;99.90
26757;DHT22;23848;49.798;10.228;2024-03-06T03:52:58;6.50;99.90
26757;DHT22;23848;49.798;10.228;2024-03-06T03:56:11;6.50;99.90
26757;DHT22;23848;49.798;10.228;2024-03-06T04:01:22;6.40;99.90
26757;DHT22;23848;49.798;10.228;2024-03-06T04:07:38;6.40;99.90
26757;DHT22;23848;49.798;10.228;2024-03-06T04:10:27;6.40;99.90
26757;DHT22;23848;49.798;10.228;2024-03-06T04:13:39;6.40;99.90
26757;DHT22;23848;49.798;10.228;2024-03-06T04:16:28;6.40;99.90
26757;DHT22;23848;49.798;10.228;2024-03-06T04:19:16;6.30;99.90
26757;DHT22;23848;49.798;10.228;2024-03-06T04:22:11;6.40;99.90
26757;DHT22;23848;49.798;10.228;2024-03-06T04:25:10;6.40;99.90
26757;DHT22;23848;49.798;10.228;2024-03-06T04:28:07;6.40;99.90
26757;DHT22;23848;49.798;10.228;2024-03-06T04:31:04;6.50;99.90
26757;DHT22;23848;49.798;10.228;2024-03-06T04:33:43;6.50;99.90
26757;DHT22;23848;49.798;10.228;2024-03-06T04:36:24;6.50;99.90
26757;DHT22;23848;49.798;10.228;2024-03-06T04:39:06;6.50;99.90
26757;DHT22;23848;49.798;10.228;2024-03-06T04:45:41;6.60;99.90
26757;DHT22;23848;49.798;10.228;2024-03-06T04:48:46;6.50;99.90
26757;DHT22;23848;49.798;10.228;2024-03-06T04:51:51;6.50;99.90
26757;DHT22;23848;49.798;10.228;2024-03-06T05:05:36;6.50;99.90
26757;DHT22;23848;49.798;10.228;2024-03-06T05:09:02;6.50;99.90
26757;DHT22;23848;49.798;10.228;2024-03-06T05:12:55;6.50;99.90
26757;DHT22;23848;49.798;10.228;2024-03-06T05:36:52;6.60;99.90
26757;DHT22;23848;49.798;10.228;2024-03-06T05:40:10;6.60;99.90
26757;DHT22;23848;49.798;10.228;2024-03-06T05:43:26;6.60;99.90
26757;DHT22;23848;49.798;10.228;2024-03-06T05:46:31;6.70;99.90
26757;DHT22;23848;49.798;10.228;2024-03-06T05:50:13;6.60;99.90
26757;DHT22;23848;49.798;10.228;2024-03-06T05:53:41;6.60;99.90
26757;DHT22;23848;49.798;10.228;2024-03-06T05:56:49;6.60;99.90
26757;DHT22;23848;49.798;10.228;2024-03-06T05:59:41;6.60;99.90
26757;DHT22;23848;49.798;10.228;2024-03-06T06:07:59;6.60;99.90
26757;DHT22;23848;49.798;10.228;2024-03-06T06:10:55;6.60;99.90
26757;DHT22;23848;49.798;10.228;2024-03-06T06:13:40;6.60;99.90
26757;DHT22;23848;49.798;10.228;2024-03-06T06:16:24;6.60;99.90
26757;DHT22;23848;49.798;10.228;2024-03-06T06:19:15;6.60;99.90
26757;DHT22;23848;49.798;10.228;2024-03-06T06:22:36;6.60;99.90
26757;DHT22;23848;49.798;10.228;2024-03-06T06:32:11;6.60;99.90
26757;DHT22;23848;49.798;10.228;2024-03-06T15:13:12;11.20;99.90
26757;DHT22;23848;49.798;10.228;2024-03-06T15:16:47;11.20;99.90
26757;DHT22;23848;49.798;10.228;2024-03-06T15:22:48;11.10;99.90
26757;DHT22;23848;49.798;10.228;2024-03-06T16:52:31;9.60;99.90
26757;DHT22;23848;49.798;10.228;2024-03-06T16:55:55;9.60;99.90
26757;DHT22;23848;49.798;10.228;2024-03-06T16:58:42;9.50;99.90
26757;DHT22;23848;49.798;10.228;2024-03-06T17:02:03;9.40;99.90
26757;DHT22;23848;49.798;10.228;2024-03-06T17:38:18;9.00;99.90
26757;DHT22;23848;49.798;10.228;2024-03-06T17:40:58;8.60;99.90
26757;DHT22;23848;49.798;10.228;2024-03-06T17:43:28;8.50;99.90
26757;DHT22;23848;49.798;10.228;2024-03-06T17:46:00;8.50;99.90
26757;DHT22;23848;49.798;10.228;2024-03-06T17:48:45;8.50;99.90
26757;DHT22;23848;49.798;10.228;2024-03-06T17:51:41;8.40;99.90
26757;DHT22;23848;49.798;10.228;2024-03-06T17:57:34;8.40;99.90
26757;DHT22;23848;49.798;10.228;2024-03-06T18:10:40;8.20;99.90
26757;DHT22;23848;49.798;10.228;2024-03-06T18:13:14;8.20;99.90
26757;DHT22;23848;49.798;10.228;2024-03-06T18:15:46;8.20;99.90
26757;DHT22;23848;49.798;10.228;2024-03-06T18:18:19;8.10;99.90
26757;DHT22;23848;49.798;10.228;2024-03-06T18:20:54;8.10;99.90
26757;DHT22;23848;49.798;10.228;2024-03-06T18:23:25;8.10;99.90
26757;DHT22;23848;49.798;10.228;2024-03-06T18:26:05;8.10;99.90
26757;DHT22;23848;49.798;10.228;2024-03-06T18:28:42;8.10;99.90
26757;DHT22;23848;49.798;10.228;2024-03-06T18:31:21;8.00;99.90
26757;DHT22;23848;49.798;10.228;2024-03-06T18:33:51;8.00;99.90
26757;DHT22;23848;49.798;10.228;2024-03-06T18:37:11;8.00;99.90
26757;DHT22;23848;49.798;10.228;2024-03-06T18:40:17;8.00;99.90
26757;DHT22;23848;49.798;10.228;2024-03-06T18:43:39;8.00;99.90
26757;DHT22;23848;49.798;10.228;2024-03-06T18:46:17;8.00;99.90
26757;DHT22;23848;49.798;10.228;2024-03-06T18:49:18;8.00;99.90
26757;DHT22;23848;49.798;10.228;2024-03-06T18:52:03;8.00;99.90
26757;DHT22;23848;49.798;10.228;2024-03-06T18:54:56;8.00;99.90
26757;DHT22;23848;49.798;10.228;2024-03-06T18:57:34;8.00;99.90
26757;DHT22;23848;49.798;10.228;2024-03-06T19:00:06;8.00;99.90
26757;DHT22;23848;49.798;10.228;2024-03-06T19:02:35;8.00;99.90
26757;DHT22;23848;49.798;10.228;2024-03-06T19:05:04;8.00;99.90
26757;DHT22;23848;49.798;10.228;2024-03-06T19:07:33;7.90;99.90
26757;DHT22;23848;49.798;10.228;2024-03-06T19:10:01;7.90;99.90
26757;DHT22;23848;49.798;10.228;2024-03-06T19:12:32;7.90;99.90
26757;DHT22;23848;49.798;10.228;2024-03-06T19:15:01;7.90;99.90
26757;DHT22;23848;49.798;10.228;2024-03-06T19:17:46;7.90;99.90
26757;DHT22;23848;49.798;10.228;2024-03-06T19:20:20;7.90;99.90
26757;DHT22;23848;49.798;10.228;2024-03-06T19:22:48;7.90;99.90
26757;DHT22;23848;49.798;10.228;2024-03-06T19:25:20;7.90;99.90
26757;DHT22;23848;49.798;10.228;2024-03-06T19:27:48;7.90;99.90
26757;DHT22;23848;49.798;10.228;2024-03-06T19:30:16;7.90;99.90
26757;DHT22;23848;49.798;10.228;2024-03-06T19:32:48;8.00;99.90
26757;DHT22;23848;49.798;10.228;2024-03-06T19:35:22;7.90;99.90
26757;DHT22;23848;49.798;10.228;2024-03-06T19:37:51;7.90;99.90
26757;DHT22;23848;49.798;10.228;2024-03-06T19:40:21;8.00;99.90
26757;DHT22;23848;49.798;10.228;2024-03-06T19:42:49;8.00;99.90
26757;DHT22;23848;49.798;10.228;2024-03-06T19:45:17;8.00;99.90
26757;DHT22;23848;49.798;10.228;2024-03-06T19:47:47;8.00;99.90
26757;DHT22;23848;49.798;10.228;2024-03-06T19:50:15;8.00;99.90
26757;DHT22;23848;49.798;10.228;2024-03-06T19:52:45;8.00;99.90
26757;DHT22;23848;49.798;10.228;2024-03-06T19:55:17;8.00;99.90
26757;DHT22;23848;49.798;10.228;2024-03-06T19:57:51;8.10;99.90
26757;DHT22;23848;49.798;10.228;2024-03-06T20:00:20;8.10;99.90
26757;DHT22;23848;49.798;10.228;2024-03-06T20:02:50;8.00;99.90
26757;DHT22;23848;49.798;10.228;2024-03-06T20:05:20;8.10;99.90
26757;DHT22;23848;49.798;10.228;2024-03-06T20:07:49;8.00;99.90
26757;DHT22;23848;49.798;10.228;2024-03-06T20:10:17;8.00;99.90
26757;DHT22;23848;49.798;10.228;2024-03-06T20:12:47;8.00;99.90
26757;DHT22;23848;49.798;10.228;2024-03-06T20:15:15;8.00;99.90
26757;DHT22;23848;49.798;10.228;2024-03-06T20:17:51;8.00;99.90
26757;DHT22;23848;49.798;10.228;2024-03-06T20:20:19;7.90;99.90
26757;DHT22;23848;49.798;10.228;2024-03-06T20:22:47;7.90;99.90
26757;DHT22;23848;49.798;10.228;2024-03-06T20:25:16;7.80;99.90
26757;DHT22;23848;49.798;10.228;2024-03-06T20:27:44;7.80;99.90
26757;DHT22;23848;49.798;10.228;2024-03-06T20:30:12;7.70;99.90
26757;DHT22;23848;49.798;10.228;2024-03-06T20:32:41;7.70;99.90
26757;DHT22;23848;49.798;10.228;2024-03-06T20:35:11;7.60;99.90
26757;DHT22;23848;49.798;10.228;2024-03-06T20:37:43;7.60;99.90
26757;DHT22;23848;49.798;10.228;2024-03-06T20:40:13;7.50;99.90
26757;DHT22;23848;49.798;10.228;2024-03-06T20:42:41;7.40;99.90
26757;DHT22;23848;49.798;10.228;2024-03-06T20:45:10;7.30;99.90
26757;DHT22;23848;49.798;10.228;2024-03-06T20:47:44;7.30;99.90
26757;DHT22;23848;49.798;10.228;2024-03-06T20:50:16;7.30;99.90
26757;DHT22;23848;49.798;10.228;2024-03-06T20:52:50;7.20;99.90
26757;DHT22;23848;49.798;10.228;2024-03-06T20:55:20;7.10;99.90
26757;DHT22;23848;49.798;10.228;2024-03-06T20:57:48;7.00;99.90
26757;DHT22;23848;49.798;10.228;2024-03-06T21:00:17;7.00;99.90
26757;DHT22;23848;49.798;10.228;2024-03-06T21:02:48;6.90;99.90
26757;DHT22;23848;49.798;10.228;2024-03-06T21:05:18;6.90;99.90
26757;DHT22;23848;49.798;10.228;2024-03-06T21:07:46;6.80;99.90
26757;DHT22;23848;49.798;10.228;2024-03-06T21:10:15;6.80;99.90
26757;DHT22;23848;49.798;10.228;2024-03-06T21:12:44;6.70;99.90
26757;DHT22;23848;49.798;10.228;2024-03-06T21:15:15;6.70;99.90
26757;DHT22;23848;49.798;10.228;2024-03-06T21:17:44;6.70;99.90
26757;DHT22;23848;49.798;10.228;2024-03-06T21:20:12;6.60;99.90
26757;DHT22;23848;49.798;10.228;2024-03-06T21:22:43;6.50;99.90
26757;DHT22;23848;49.798;10.228;2024-03-06T21:25:12;6.50;99.90
26757;DHT22;23848;49.798;10.228;2024-03-06T21:27:40;6.40;99.90
26757;DHT22;23848;49.798;10.228;2024-03-06T21:30:10;6.30;99.90
26757;DHT22;23848;49.798;10.228;2024-03-06T21:32:38;6.20;99.90
26757;DHT22;23848;49.798;10.228;2024-03-06T21:35:08;6.20;99.90
26757;DHT22;23848;49.798;10.228;2024-03-06T21:37:39;6.20;99.90
26757;DHT22;23848;49.798;10.228;2024-03-06T21:40:09;6.10;99.90
26757;DHT22;23848;49.798;10.228;2024-03-06T21:42:40;6.10;99.90
26757;DHT22;23848;49.798;10.228;2024-03-06T21:45:09;6.00;99.90
26757;DHT22;23848;49.798;10.228;2024-03-06T21:47:37;6.00;99.90
26757;DHT22;23848;49.798;10.228;2024-03-06T21:50:06;6.00;99.90
26757;DHT22;23848;49.798;10.228;2024-03-06T21:52:36;5.90;99.90
26757;DHT22;23848;49.798;10.228;2024-03-06T21:55:05;5.90;99.90
26757;DHT22;23848;49.798;10.228;2024-03-06T21:57:34;5.90;99.90
26757;DHT22;23848;49.798;10.228;2024-03-06T22:00:03;5.90;99.90
26757;DHT22;23848;49.798;10.228;2024-03-06T22:02:32;5.90;99.90
26757;DHT22;23848;49.798;10.228;2024-03-06T22:05:00;5.90;99.90
26757;DHT22;23848;49.798;10.228;2024-03-06T22:07:29;5.80;99.90
26757;DHT22;23848;49.798;10.228;2024-03-06T22:09:57;5.80;99.90
26757;DHT22;23848;49.798;10.228;2024-03-06T22:12:25;5.70;99.90
26757;DHT22;23848;49.798;10.228;2024-03-06T22:14:55;5.60;99.90
26757;DHT22;23848;49.798;10.228;2024-03-06T22:17:23;5.50;99.90
26757;DHT22;23848;49.798;10.228;2024-03-06T22:19:52;5.40;99.90
26757;DHT22;23848;49.798;10.228;2024-03-06T22:22:20;5.30;99.90
26757;DHT22;23848;49.798;10.228;2024-03-06T22:24:50;5.30;99.90
26757;DHT22;23848;49.798;10.228;2024-03-06T22:27:19;5.20;99.90
26757;DHT22;23848;49.798;10.228;2024-03-06T22:29:47;5.20;99.90
26757;DHT22;23848;49.798;10.228;2024-03-06T22:32:16;5.10;99.90
26757;DHT22;23848;49.798;10.228;2024-03-06T22:34:44;5.10;99.90
26757;DHT22;23848;49.798;10.228;2024-03-06T22:37:13;5.10;99.90
26757;DHT22;23848;49.798;10.228;2024-03-06T22:39:41;5.10;99.90
26757;DHT22;23848;49.798;10.228;2024-03-06T22:42:09;5.10;99.90
26757;DHT22;23848;49.798;10.228;2024-03-06T22:44:37;5.10;99.90
26757;DHT22;23848;49.798;10.228;2024-03-06T22:47:05;5.10;99.90
26757;DHT22;23848;49.798;10.228;2024-03-06T22:49:36;5.00;99.90
26757;DHT22;23848;49.798;10.228;2024-03-06T22:52:05;5.00;99.90
26757;DHT22;23848;49.798;10.228;2024-03-06T22:54:33;5.00;99.90
26757;DHT22;23848;49.798;10.228;2024-03-06T22:57:03;4.90;99.90
26757;DHT22;23848;49.798;10.228;2024-03-06T22:59:31;4.90;99.90
26757;DHT22;23848;49.798;10.228;2024-03-06T23:01:59;4.90;99.90
26757;DHT22;23848;49.798;10.228;2024-03-06T23:04:28;4.90;99.90
26757;DHT22;23848;49.798;10.228;2024-03-06T23:06:57;4.80;99.90
26757;DHT22;23848;49.798;10.228;2024-03-06T23:09:25;4.70;99.90
26757;DHT22;23848;49.798;10.228;2024-03-06T23:11:54;4.70;99.90
26757;DHT22;23848;49.798;10.228;2024-03-06T23:14:22;4.60;99.90
26757;DHT22;23848;49.798;10.228;2024-03-06T23:16:50;4.50;99.90
26757;DHT22;23848;49.798;10.228;2024-03-06T23:19:19;4.50;99.90
26757;DHT22;23848;49.798;10.228;2024-03-06T23:21:47;4.50;99.90
26757;DHT22;23848;49.798;10.228;2024-03-06T23:24:16;4.40;99.90
26757;DHT22;23848;49.798;10.228;2024-03-06T23:26:44;4.40;99.90
26757;DHT22;23848;49.798;10.228;2024-03-06T23:29:13;4.30;99.90
26757;DHT22;23848;49.798;10.228;2024-03-06T23:31:42;4.30;99.90
26757;DHT22;23848;49.798;10.228;2024-03-06T23:34:11;4.20;99.90
26757;DHT22;23848;49.798;10.228;2024-03-06T23:36:39;4.20;99.90
26757;DHT22;23848;49.798;10.228;2024-03-06T23:39:07;4.10;99.90
26757;DHT22;23848;49.798;10.228;2024-03-06T23:41:37;4.10;99.90
26757;DHT22;23848;49.798;10.228;2024-03-06T23:44:05;4.10;99.90
26757;DHT22;23848;49.798;10.228;2024-03-06T23:46:33;4.00;99.90
26757;DHT22;23848;49.798;10.228;2024-03-06T23:49:01;3.90;99.90
26757;DHT22;23848;49.798;10.228;2024-03-06T23:51:30;3.90;99.90
26757;DHT22;23848;49.798;10.228;2024-03-06T23:54:00;3.90;99.90
26757;DHT22;23848;49.798;10.228;2024-03-06T23:56:28;3.90;99.90
26757;DHT22;23848;49.798;10.228;2024-03-06T23:59:00;3.90;99.90
